sensor_id;sensor_type;location;lat;lon;timestamp;temperature;humidity
12408;DHT22;6268;48.188;17.134;2023-02-01T00:01:38;4.80;99.90
12408;DHT22;6268;48.188;17.134;2023-02-01T00:04:07;4.90;99.90
12408;DHT22;6268;48.188;17.134;2023-02-01T00:06:36;4.90;99.90
12408;DHT22;6268;48.188;17.134;2023-02-01T00:09:05;4.90;99.90
12408;DHT22;6268;48.188;17.134;2023-02-01T00:11:34;4.90;99.90
12408;DHT22;6268;48.188;17.134;2023-02-01T00:14:05;4.90;99.90
12408;DHT22;6268;48.188;17.134;2023-02-01T00:16:35;4.90;99.90
12408;DHT22;6268;48.188;17.134;2023-02-01T00:19:06;4.80;99.90
12408;DHT22;6268;48.188;17.134;2023-02-01T00:21:38;4.80;99.90
12408;DHT22;6268;48.188;17.134;2023-02-01T00:24:07;4.80;99.90
12408;DHT22;6268;48.188;17.134;2023-02-01T00:26:39;4.80;99.90
12408;DHT22;6268;48.188;17.134;2023-02-01T00:29:13;4.80;99.90
12408;DHT22;6268;48.188;17.134;2023-02-01T00:31:44;4.80;99.90
12408;DHT22;6268;48.188;17.134;2023-02-01T00:34:15;4.80;99.90
12408;DHT22;6268;48.188;17.134;2023-02-01T00:36:45;4.70;99.90
12408;DHT22;6268;48.188;17.134;2023-02-01T00:39:14;4.70;99.90
12408;DHT22;6268;48.188;17.134;2023-02-01T00:41:43;4.70;99.90
12408;DHT22;6268;48.188;17.134;2023-02-01T00:44:13;4.70;99.90
12408;DHT22;6268;48.188;17.134;2023-02-01T00:46:42;4.70;99.90
12408;DHT22;6268;48.188;17.134;2023-02-01T00:49:11;4.70;99.90
12408;DHT22;6268;48.188;17.134;2023-02-01T00:51:40;4.70;99.90
12408;DHT22;6268;48.188;17.134;2023-02-01T00:54:08;4.60;99.90
12408;DHT22;6268;48.188;17.134;2023-02-01T00:56:37;4.70;99.90
12408;DHT22;6268;48.188;17.134;2023-02-01T00:59:07;4.70;99.90
12408;DHT22;6268;48.188;17.134;2023-02-01T01:01:40;4.70;99.90
12408;DHT22;6268;48.188;17.134;2023-02-01T01:04:09;4.70;99.90
12408;DHT22;6268;48.188;17.134;2023-02-01T01:06:38;4.70;99.90
12408;DHT22;6268;48.188;17.134;2023-02-01T01:09:07;4.60;99.90
12408;DHT22;6268;48.188;17.134;2023-02-01T01:11:37;4.70;99.90
12408;DHT22;6268;48.188;17.134;2023-02-01T01:14:07;4.70;99.90
12408;DHT22;6268;48.188;17.134;2023-02-01T01:16:36;4.70;99.90
12408;DHT22;6268;48.188;17.134;2023-02-01T01:19:07;4.70;99.90
12408;DHT22;6268;48.188;17.134;2023-02-01T01:21:35;4.70;99.90
12408;DHT22;6268;48.188;17.134;2023-02-01T01:24:05;4.70;99.90
12408;DHT22;6268;48.188;17.134;2023-02-01T01:26:34;4.70;99.90
12408;DHT22;6268;48.188;17.134;2023-02-01T01:29:03;4.70;99.90
12408;DHT22;6268;48.188;17.134;2023-02-01T01:31:32;4.70;99.90
12408;DHT22;6268;48.188;17.134;2023-02-01T01:34:01;4.70;99.90
12408;DHT22;6268;48.188;17.134;2023-02-01T01:36:31;4.70;99.90
12408;DHT22;6268;48.188;17.134;2023-02-01T01:39:00;4.70;99.90
12408;DHT22;6268;48.188;17.134;2023-02-01T01:41:30;4.70;99.90
12408;DHT22;6268;48.188;17.134;2023-02-01T01:44:01;4.70;99.90
12408;DHT22;6268;48.188;17.134;2023-02-01T01:46:33;4.70;99.90
12408;DHT22;6268;48.188;17.134;2023-02-01T01:49:08;4.70;99.90
12408;DHT22;6268;48.188;17.134;2023-02-01T01:51:45;4.70;99.90
12408;DHT22;6268;48.188;17.134;2023-02-01T01:54:18;4.70;99.90
12408;DHT22;6268;48.188;17.134;2023-02-01T01:56:52;4.80;99.90
12408;DHT22;6268;48.188;17.134;2023-02-01T01:59:30;4.80;99.90
12408;DHT22;6268;48.188;17.134;2023-02-01T02:02:00;4.80;99.90
12408;DHT22;6268;48.188;17.134;2023-02-01T02:04:30;4.80;99.90
12408;DHT22;6268;48.188;17.134;2023-02-01T02:07:04;4.80;99.90
12408;DHT22;6268;48.188;17.134;2023-02-01T02:09:36;4.80;99.90
12408;DHT22;6268;48.188;17.134;2023-02-01T02:12:09;4.80;99.90
12408;DHT22;6268;48.188;17.134;2023-02-01T02:14:38;4.70;99.90
12408;DHT22;6268;48.188;17.134;2023-02-01T02:17:14;4.70;99.90
12408;DHT22;6268;48.188;17.134;2023-02-01T02:20:22;4.70;99.90
12408;DHT22;6268;48.188;17.134;2023-02-01T02:26:38;4.70;99.90
12408;DHT22;6268;48.188;17.134;2023-02-01T02:32:58;4.70;99.90
12408;DHT22;6268;48.188;17.134;2023-02-01T02:36:07;4.70;99.90
12408;DHT22;6268;48.188;17.134;2023-02-01T02:38:49;4.70;99.90
12408;DHT22;6268;48.188;17.134;2023-02-01T02:41:27;4.60;99.90
12408;DHT22;6268;48.188;17.134;2023-02-01T02:44:24;4.60;99.90
12408;DHT22;6268;48.188;17.134;2023-02-01T02:47:22;4.60;99.90
12408;DHT22;6268;48.188;17.134;2023-02-01T02:50:12;4.60;99.90
12408;DHT22;6268;48.188;17.134;2023-02-01T02:53:11;4.60;99.90
12408;DHT22;6268;48.188;17.134;2023-02-01T02:56:02;4.60;99.90
12408;DHT22;6268;48.188;17.134;2023-02-01T02:58:52;4.60;99.90
12408;DHT22;6268;48.188;17.134;2023-02-01T03:01:40;4.60;99.90
12408;DHT22;6268;48.188;17.134;2023-02-01T03:04:27;4.60;99.90
12408;DHT22;6268;48.188;17.134;2023-02-01T03:07:09;4.60;99.90
12408;DHT22;6268;48.188;17.134;2023-02-01T03:09:45;4.60;99.90
12408;DHT22;6268;48.188;17.134;2023-02-01T03:12:17;4.60;99.90
12408;DHT22;6268;48.188;17.134;2023-02-01T03:15:08;4.60;99.90
12408;DHT22;6268;48.188;17.134;2023-02-01T03:17:43;4.60;99.90
12408;DHT22;6268;48.188;17.134;2023-02-01T03:20:14;4.60;99.90
12408;DHT22;6268;48.188;17.134;2023-02-01T03:22:52;4.60;99.90
12408;DHT22;6268;48.188;17.134;2023-02-01T03:25:25;4.60;99.90
12408;DHT22;6268;48.188;17.134;2023-02-01T03:28:01;4.70;99.90
12408;DHT22;6268;48.188;17.134;2023-02-01T03:30:36;4.70;99.90
12408;DHT22;6268;48.188;17.134;2023-02-01T03:33:10;4.70;99.90
12408;DHT22;6268;48.188;17.134;2023-02-01T03:35:55;4.70;99.90
12408;DHT22;6268;48.188;17.134;2023-02-01T03:38:33;4.60;99.90
12408;DHT22;6268;48.188;17.134;2023-02-01T03:41:12;4.70;99.90
12408;DHT22;6268;48.188;17.134;2023-02-01T03:43:52;4.70;99.90
12408;DHT22;6268;48.188;17.134;2023-02-01T03:46:30;4.60;99.90
12408;DHT22;6268;48.188;17.134;2023-02-01T03:49:05;4.70;99.90
12408;DHT22;6268;48.188;17.134;2023-02-01T03:51:38;4.70;99.90
12408;DHT22;6268;48.188;17.134;2023-02-01T03:54:13;4.70;99.90
12408;DHT22;6268;48.188;17.134;2023-02-01T03:56:45;4.70;99.90
12408;DHT22;6268;48.188;17.134;2023-02-01T03:59:16;4.70;99.90
12408;DHT22;6268;48.188;17.134;2023-02-01T04:01:45;4.70;99.90
12408;DHT22;6268;48.188;17.134;2023-02-01T04:04:14;4.70;99.90
12408;DHT22;6268;48.188;17.134;2023-02-01T04:06:47;4.70;99.90
12408;DHT22;6268;48.188;17.134;2023-02-01T04:09:17;4.70;99.90
12408;DHT22;6268;48.188;17.134;2023-02-01T04:11:46;4.70;99.90
12408;DHT22;6268;48.188;17.134;2023-02-01T04:14:15;4.70;99.90
12408;DHT22;6268;48.188;17.134;2023-02-01T04:16:44;4.80;99.90
12408;DHT22;6268;48.188;17.134;2023-02-01T04:19:13;4.80;99.90
12408;DHT22;6268;48.188;17.134;2023-02-01T04:21:42;4.80;99.90
12408;DHT22;6268;48.188;17.134;2023-02-01T04:24:11;4.80;99.90
12408;DHT22;6268;48.188;17.134;2023-02-01T04:26:41;4.90;99.90
12408;DHT22;6268;48.188;17.134;2023-02-01T04:29:10;4.90;99.90
12408;DHT22;6268;48.188;17.134;2023-02-01T04:31:39;4.90;99.90
12408;DHT22;6268;48.188;17.134;2023-02-01T04:34:09;4.80;99.90
12408;DHT22;6268;48.188;17.134;2023-02-01T04:36:37;4.90;99.90
12408;DHT22;6268;48.188;17.134;2023-02-01T04:39:08;4.90;99.90
12408;DHT22;6268;48.188;17.134;2023-02-01T04:41:37;4.80;99.90
12408;DHT22;6268;48.188;17.134;2023-02-01T04:44:13;4.90;99.90
12408;DHT22;6268;48.188;17.134;2023-02-01T04:46:44;4.90;99.90
12408;DHT22;6268;48.188;17.134;2023-02-01T04:49:14;4.80;99.90
12408;DHT22;6268;48.188;17.134;2023-02-01T04:51:43;4.80;99.90
12408;DHT22;6268;48.188;17.134;2023-02-01T04:54:12;4.80;99.90
12408;DHT22;6268;48.188;17.134;2023-02-01T04:56:41;4.80;99.90
12408;DHT22;6268;48.188;17.134;2023-02-01T04:59:12;4.80;99.90
12408;DHT22;6268;48.188;17.134;2023-02-01T05:01:41;4.90;99.90
12408;DHT22;6268;48.188;17.134;2023-02-01T05:04:10;4.90;99.90
12408;DHT22;6268;48.188;17.134;2023-02-01T05:06:39;4.90;99.90
12408;DHT22;6268;48.188;17.134;2023-02-01T05:09:08;4.90;99.90
12408;DHT22;6268;48.188;17.134;2023-02-01T05:11:37;4.90;99.90
12408;DHT22;6268;48.188;17.134;2023-02-01T05:14:24;4.90;99.90
12408;DHT22;6268;48.188;17.134;2023-02-01T05:16:53;4.90;99.90
12408;DHT22;6268;48.188;17.134;2023-02-01T05:19:22;4.90;99.90
12408;DHT22;6268;48.188;17.134;2023-02-01T05:21:51;5.00;99.90
12408;DHT22;6268;48.188;17.134;2023-02-01T05:24:19;5.00;99.90
12408;DHT22;6268;48.188;17.134;2023-02-01T05:26:49;5.00;99.90
12408;DHT22;6268;48.188;17.134;2023-02-01T05:29:18;5.00;99.90
12408;DHT22;6268;48.188;17.134;2023-02-01T05:31:48;5.00;99.90
12408;DHT22;6268;48.188;17.134;2023-02-01T05:34:17;5.00;99.90
12408;DHT22;6268;48.188;17.134;2023-02-01T05:36:46;5.10;99.90
12408;DHT22;6268;48.188;17.134;2023-02-01T05:39:15;5.10;99.90
12408;DHT22;6268;48.188;17.134;2023-02-01T05:41:44;5.10;99.90
12408;DHT22;6268;48.188;17.134;2023-02-01T05:44:13;5.10;99.90
12408;DHT22;6268;48.188;17.134;2023-02-01T05:46:42;5.10;99.90
12408;DHT22;6268;48.188;17.134;2023-02-01T05:49:12;5.00;99.90
12408;DHT22;6268;48.188;17.134;2023-02-01T05:51:41;5.00;99.90
12408;DHT22;6268;48.188;17.134;2023-02-01T05:54:10;5.20;99.90
12408;DHT22;6268;48.188;17.134;2023-02-01T05:56:39;5.20;99.90
12408;DHT22;6268;48.188;17.134;2023-02-01T05:59:09;5.20;99.90
12408;DHT22;6268;48.188;17.134;2023-02-01T06:01:38;5.30;99.90
12408;DHT22;6268;48.188;17.134;2023-02-01T06:04:07;5.40;99.90
12408;DHT22;6268;48.188;17.134;2023-02-01T06:06:37;5.50;99.90
12408;DHT22;6268;48.188;17.134;2023-02-01T06:09:06;5.50;99.90
12408;DHT22;6268;48.188;17.134;2023-02-01T06:11:35;5.50;99.90
12408;DHT22;6268;48.188;17.134;2023-02-01T06:14:04;5.50;99.90
12408;DHT22;6268;48.188;17.134;2023-02-01T06:16:35;5.50;99.90
12408;DHT22;6268;48.188;17.134;2023-02-01T06:19:04;5.50;99.90
12408;DHT22;6268;48.188;17.134;2023-02-01T06:21:32;5.50;99.90
12408;DHT22;6268;48.188;17.134;2023-02-01T06:24:04;5.50;99.90
12408;DHT22;6268;48.188;17.134;2023-02-01T06:26:33;5.50;99.90
12408;DHT22;6268;48.188;17.134;2023-02-01T06:29:03;5.50;99.90
12408;DHT22;6268;48.188;17.134;2023-02-01T06:31:33;5.50;99.90
12408;DHT22;6268;48.188;17.134;2023-02-01T06:34:02;5.60;99.90
12408;DHT22;6268;48.188;17.134;2023-02-01T06:36:31;5.60;99.90
12408;DHT22;6268;48.188;17.134;2023-02-01T06:39:00;5.50;99.90
12408;DHT22;6268;48.188;17.134;2023-02-01T06:41:30;5.50;99.90
12408;DHT22;6268;48.188;17.134;2023-02-01T06:44:01;5.60;99.90
12408;DHT22;6268;48.188;17.134;2023-02-01T06:46:30;5.80;99.90
12408;DHT22;6268;48.188;17.134;2023-02-01T06:48:59;5.80;99.90
12408;DHT22;6268;48.188;17.134;2023-02-01T06:51:28;5.90;99.90
12408;DHT22;6268;48.188;17.134;2023-02-01T06:53:57;6.00;99.90
12408;DHT22;6268;48.188;17.134;2023-02-01T06:56:26;6.10;99.90
12408;DHT22;6268;48.188;17.134;2023-02-01T06:58:57;6.20;99.90
12408;DHT22;6268;48.188;17.134;2023-02-01T07:01:27;6.20;99.90
12408;DHT22;6268;48.188;17.134;2023-02-01T07:03:56;6.20;99.90
12408;DHT22;6268;48.188;17.134;2023-02-01T07:06:25;6.30;99.90
12408;DHT22;6268;48.188;17.134;2023-02-01T07:08:54;6.30;99.90
12408;DHT22;6268;48.188;17.134;2023-02-01T07:11:24;6.30;99.90
12408;DHT22;6268;48.188;17.134;2023-02-01T07:13:54;6.30;99.90
12408;DHT22;6268;48.188;17.134;2023-02-01T07:16:24;6.40;99.90
12408;DHT22;6268;48.188;17.134;2023-02-01T07:18:53;6.40;99.90
12408;DHT22;6268;48.188;17.134;2023-02-01T07:21:22;6.40;99.90
12408;DHT22;6268;48.188;17.134;2023-02-01T07:23:51;6.40;99.90
12408;DHT22;6268;48.188;17.134;2023-02-01T07:26:20;6.30;99.90
12408;DHT22;6268;48.188;17.134;2023-02-01T07:28:49;6.30;99.90
12408;DHT22;6268;48.188;17.134;2023-02-01T07:31:19;6.30;99.90
12408;DHT22;6268;48.188;17.134;2023-02-01T07:33:50;6.30;99.90
12408;DHT22;6268;48.188;17.134;2023-02-01T07:36:19;6.40;99.90
12408;DHT22;6268;48.188;17.134;2023-02-01T07:38:48;6.60;99.90
12408;DHT22;6268;48.188;17.134;2023-02-01T07:41:22;6.90;99.90
12408;DHT22;6268;48.188;17.134;2023-02-01T07:43:52;7.30;99.90
12408;DHT22;6268;48.188;17.134;2023-02-01T07:46:21;7.70;99.90
12408;DHT22;6268;48.188;17.134;2023-02-01T07:48:52;7.90;99.90
12408;DHT22;6268;48.188;17.134;2023-02-01T07:51:20;8.10;99.90
12408;DHT22;6268;48.188;17.134;2023-02-01T07:53:49;8.20;99.90
12408;DHT22;6268;48.188;17.134;2023-02-01T07:56:21;8.30;99.90
12408;DHT22;6268;48.188;17.134;2023-02-01T07:58:51;8.40;99.90
12408;DHT22;6268;48.188;17.134;2023-02-01T08:01:24;8.40;99.90
12408;DHT22;6268;48.188;17.134;2023-02-01T08:03:56;8.40;99.90
12408;DHT22;6268;48.188;17.134;2023-02-01T08:06:30;8.40;99.90
12408;DHT22;6268;48.188;17.134;2023-02-01T08:09:01;8.40;99.90
12408;DHT22;6268;48.188;17.134;2023-02-01T08:11:31;8.60;99.90
12408;DHT22;6268;48.188;17.134;2023-02-01T08:14:00;9.20;99.90
12408;DHT22;6268;48.188;17.134;2023-02-01T08:16:29;9.80;99.90
12408;DHT22;6268;48.188;17.134;2023-02-01T08:18:59;10.40;99.90
12408;DHT22;6268;48.188;17.134;2023-02-01T08:21:29;10.70;99.90
12408;DHT22;6268;48.188;17.134;2023-02-01T08:24:05;10.90;99.90
12408;DHT22;6268;48.188;17.134;2023-02-01T08:26:34;11.40;99.90
12408;DHT22;6268;48.188;17.134;2023-02-01T08:29:05;11.90;99.90
12408;DHT22;6268;48.188;17.134;2023-02-01T08:31:36;12.10;99.90
12408;DHT22;6268;48.188;17.134;2023-02-01T08:34:09;12.30;99.90
12408;DHT22;6268;48.188;17.134;2023-02-01T08:36:39;12.20;99.90
12408;DHT22;6268;48.188;17.134;2023-02-01T08:39:09;12.20;99.70
12408;DHT22;6268;48.188;17.134;2023-02-01T08:41:38;12.40;98.90
12408;DHT22;6268;48.188;17.134;2023-02-01T08:44:09;12.60;98.00
12408;DHT22;6268;48.188;17.134;2023-02-01T08:46:38;12.70;97.20
12408;DHT22;6268;48.188;17.134;2023-02-01T08:49:06;13.00;96.50
12408;DHT22;6268;48.188;17.134;2023-02-01T08:51:37;13.20;95.20
12408;DHT22;6268;48.188;17.134;2023-02-01T08:54:05;13.40;94.40
12408;DHT22;6268;48.188;17.134;2023-02-01T08:56:34;13.70;92.70
12408;DHT22;6268;48.188;17.134;2023-02-01T08:59:03;14.10;90.70
12408;DHT22;6268;48.188;17.134;2023-02-01T09:01:32;14.20;87.90
12408;DHT22;6268;48.188;17.134;2023-02-01T09:04:01;14.20;87.80
12408;DHT22;6268;48.188;17.134;2023-02-01T09:06:31;14.60;85.40
12408;DHT22;6268;48.188;17.134;2023-02-01T09:09:00;15.00;83.60
12408;DHT22;6268;48.188;17.134;2023-02-01T09:11:29;15.20;81.20
12408;DHT22;6268;48.188;17.134;2023-02-01T09:13:58;15.40;78.00
12408;DHT22;6268;48.188;17.134;2023-02-01T09:16:27;15.40;76.20
12408;DHT22;6268;48.188;17.134;2023-02-01T09:18:56;15.60;75.00
12408;DHT22;6268;48.188;17.134;2023-02-01T09:21:47;15.60;75.30
12408;DHT22;6268;48.188;17.134;2023-02-01T09:24:16;15.80;71.20
12408;DHT22;6268;48.188;17.134;2023-02-01T09:26:45;15.60;71.40
12408;DHT22;6268;48.188;17.134;2023-02-01T09:29:14;15.30;71.90
12408;DHT22;6268;48.188;17.134;2023-02-01T09:31:43;15.00;72.70
12408;DHT22;6268;48.188;17.134;2023-02-01T09:34:29;14.50;74.10
12408;DHT22;6268;48.188;17.134;2023-02-01T09:37:00;14.00;76.10
12408;DHT22;6268;48.188;17.134;2023-02-01T09:39:29;13.60;78.30
12408;DHT22;6268;48.188;17.134;2023-02-01T09:42:06;13.00;80.20
12408;DHT22;6268;48.188;17.134;2023-02-01T09:45:03;12.70;83.30
12408;DHT22;6268;48.188;17.134;2023-02-01T09:47:44;12.40;84.60
12408;DHT22;6268;48.188;17.134;2023-02-01T09:50:19;12.10;86.90
12408;DHT22;6268;48.188;17.134;2023-02-01T09:52:57;11.90;89.20
12408;DHT22;6268;48.188;17.134;2023-02-01T09:55:34;11.80;90.30
12408;DHT22;6268;48.188;17.134;2023-02-01T09:58:13;11.70;90.50
12408;DHT22;6268;48.188;17.134;2023-02-01T10:00:49;11.60;91.30
12408;DHT22;6268;48.188;17.134;2023-02-01T10:03:21;11.30;92.00
12408;DHT22;6268;48.188;17.134;2023-02-01T10:06:10;11.10;93.00
12408;DHT22;6268;48.188;17.134;2023-02-01T10:09:16;10.90;94.00
12408;DHT22;6268;48.188;17.134;2023-02-01T10:12:49;10.70;94.10
12408;DHT22;6268;48.188;17.134;2023-02-01T10:15:36;10.30;95.40
12408;DHT22;6268;48.188;17.134;2023-02-01T10:18:29;10.20;96.70
12408;DHT22;6268;48.188;17.134;2023-02-01T10:21:29;10.10;97.60
12408;DHT22;6268;48.188;17.134;2023-02-01T10:27:13;9.60;99.90
12408;DHT22;6268;48.188;17.134;2023-02-01T10:29:51;9.40;99.90
12408;DHT22;6268;48.188;17.134;2023-02-01T10:32:29;9.30;99.90
12408;DHT22;6268;48.188;17.134;2023-02-01T10:35:04;9.20;99.90
12408;DHT22;6268;48.188;17.134;2023-02-01T10:37:41;9.10;99.90
12408;DHT22;6268;48.188;17.134;2023-02-01T10:40:19;9.20;99.90
12408;DHT22;6268;48.188;17.134;2023-02-01T10:42:51;9.10;99.90
12408;DHT22;6268;48.188;17.134;2023-02-01T10:45:24;9.10;99.90
12408;DHT22;6268;48.188;17.134;2023-02-01T10:47:56;9.00;99.90
12408;DHT22;6268;48.188;17.134;2023-02-01T10:50:34;8.90;99.90
12408;DHT22;6268;48.188;17.134;2023-02-01T10:53:12;8.80;99.90
12408;DHT22;6268;48.188;17.134;2023-02-01T10:55:50;8.60;99.90
12408;DHT22;6268;48.188;17.134;2023-02-01T10:58:26;8.50;99.90
12408;DHT22;6268;48.188;17.134;2023-02-01T11:01:00;8.40;99.90
12408;DHT22;6268;48.188;17.134;2023-02-01T11:03:36;8.30;99.90
12408;DHT22;6268;48.188;17.134;2023-02-01T11:06:22;8.30;99.90
12408;DHT22;6268;48.188;17.134;2023-02-01T11:08:57;8.30;99.90
12408;DHT22;6268;48.188;17.134;2023-02-01T11:11:29;8.20;99.90
12408;DHT22;6268;48.188;17.134;2023-02-01T11:13:59;8.30;99.90
12408;DHT22;6268;48.188;17.134;2023-02-01T11:16:34;8.30;99.90
12408;DHT22;6268;48.188;17.134;2023-02-01T11:19:05;8.50;99.90
12408;DHT22;6268;48.188;17.134;2023-02-01T11:21:34;8.50;99.90
12408;DHT22;6268;48.188;17.134;2023-02-01T11:24:11;8.50;99.90
12408;DHT22;6268;48.188;17.134;2023-02-01T11:26:53;8.60;99.90
12408;DHT22;6268;48.188;17.134;2023-02-01T11:29:24;8.70;99.90
12408;DHT22;6268;48.188;17.134;2023-02-01T11:31:58;8.90;99.90
12408;DHT22;6268;48.188;17.134;2023-02-01T11:34:33;9.10;99.90
12408;DHT22;6268;48.188;17.134;2023-02-01T11:37:14;9.10;99.90
12408;DHT22;6268;48.188;17.134;2023-02-01T11:39:54;9.40;99.90
12408;DHT22;6268;48.188;17.134;2023-02-01T11:42:27;9.80;99.90
12408;DHT22;6268;48.188;17.134;2023-02-01T11:45:20;10.10;99.90
12408;DHT22;6268;48.188;17.134;2023-02-01T11:47:54;10.20;99.90
12408;DHT22;6268;48.188;17.134;2023-02-01T11:50:30;10.20;99.90
12408;DHT22;6268;48.188;17.134;2023-02-01T11:53:25;10.10;99.90
12408;DHT22;6268;48.188;17.134;2023-02-01T11:56:14;9.80;99.90
12408;DHT22;6268;48.188;17.134;2023-02-01T11:59:04;9.50;99.90
12408;DHT22;6268;48.188;17.134;2023-02-01T12:02:01;9.20;99.90
12408;DHT22;6268;48.188;17.134;2023-02-01T12:05:04;9.00;99.90
12408;DHT22;6268;48.188;17.134;2023-02-01T12:07:59;8.80;99.90
12408;DHT22;6268;48.188;17.134;2023-02-01T12:10:50;8.80;99.90
12408;DHT22;6268;48.188;17.134;2023-02-01T12:13:38;8.80;99.90
12408;DHT22;6268;48.188;17.134;2023-02-01T12:19:31;8.80;99.90
12408;DHT22;6268;48.188;17.134;2023-02-01T12:22:22;8.70;99.90
12408;DHT22;6268;48.188;17.134;2023-02-01T12:25:13;8.70;99.90
12408;DHT22;6268;48.188;17.134;2023-02-01T12:31:15;8.60;99.90
12408;DHT22;6268;48.188;17.134;2023-02-01T12:34:23;8.60;99.90
12408;DHT22;6268;48.188;17.134;2023-02-01T12:37:09;8.50;99.90
12408;DHT22;6268;48.188;17.134;2023-02-01T12:39:53;8.40;99.90
12408;DHT22;6268;48.188;17.134;2023-02-01T12:42:33;8.40;99.90
12408;DHT22;6268;48.188;17.134;2023-02-01T12:45:12;8.20;99.90
12408;DHT22;6268;48.188;17.134;2023-02-01T12:47:49;8.10;99.90
12408;DHT22;6268;48.188;17.134;2023-02-01T12:50:26;8.10;99.90
12408;DHT22;6268;48.188;17.134;2023-02-01T12:53:07;7.90;99.90
12408;DHT22;6268;48.188;17.134;2023-02-01T12:55:50;7.90;99.90
12408;DHT22;6268;48.188;17.134;2023-02-01T12:58:24;7.80;99.90
12408;DHT22;6268;48.188;17.134;2023-02-01T13:00:59;7.90;99.90
12408;DHT22;6268;48.188;17.134;2023-02-01T13:03:36;8.00;99.90
12408;DHT22;6268;48.188;17.134;2023-02-01T13:06:12;8.10;99.90
12408;DHT22;6268;48.188;17.134;2023-02-01T13:08:49;8.10;99.90
12408;DHT22;6268;48.188;17.134;2023-02-01T13:11:29;8.00;99.90
12408;DHT22;6268;48.188;17.134;2023-02-01T13:14:03;7.90;99.90
12408;DHT22;6268;48.188;17.134;2023-02-01T13:16:42;7.90;99.90
12408;DHT22;6268;48.188;17.134;2023-02-01T13:19:22;7.90;99.90
12408;DHT22;6268;48.188;17.134;2023-02-01T13:21:58;8.00;99.90
12408;DHT22;6268;48.188;17.134;2023-02-01T13:24:39;8.00;99.90
12408;DHT22;6268;48.188;17.134;2023-02-01T13:27:14;8.00;99.90
12408;DHT22;6268;48.188;17.134;2023-02-01T13:29:49;8.00;99.90
12408;DHT22;6268;48.188;17.134;2023-02-01T13:32:49;8.00;99.90
12408;DHT22;6268;48.188;17.134;2023-02-01T13:42:27;7.90;99.90
12408;DHT22;6268;48.188;17.134;2023-02-01T13:45:00;7.80;99.90
12408;DHT22;6268;48.188;17.134;2023-02-01T13:47:34;7.80;99.90
12408;DHT22;6268;48.188;17.134;2023-02-01T13:50:19;7.80;99.90
12408;DHT22;6268;48.188;17.134;2023-02-01T13:52:55;7.80;99.90
12408;DHT22;6268;48.188;17.134;2023-02-01T13:55:34;7.80;99.90
12408;DHT22;6268;48.188;17.134;2023-02-01T13:58:19;7.80;99.90
12408;DHT22;6268;48.188;17.134;2023-02-01T14:00:49;7.80;99.90
12408;DHT22;6268;48.188;17.134;2023-02-01T14:03:21;7.90;99.90
12408;DHT22;6268;48.188;17.134;2023-02-01T14:09:19;7.90;99.90
12408;DHT22;6268;48.188;17.134;2023-02-01T14:15:25;8.00;99.90
12408;DHT22;6268;48.188;17.134;2023-02-01T14:17:56;8.00;99.90
12408;DHT22;6268;48.188;17.134;2023-02-01T14:20:46;8.00;99.90
12408;DHT22;6268;48.188;17.134;2023-02-01T14:23:30;8.10;99.90
12408;DHT22;6268;48.188;17.134;2023-02-01T14:26:15;8.20;99.90
12408;DHT22;6268;48.188;17.134;2023-02-01T14:28:58;8.10;99.90
12408;DHT22;6268;48.188;17.134;2023-02-01T14:31:40;8.10;99.90
12408;DHT22;6268;48.188;17.134;2023-02-01T14:34:22;8.10;99.90
12408;DHT22;6268;48.188;17.134;2023-02-01T14:37:00;8.10;99.90
12408;DHT22;6268;48.188;17.134;2023-02-01T14:39:49;8.10;99.90
12408;DHT22;6268;48.188;17.134;2023-02-01T14:42:37;8.20;99.90
12408;DHT22;6268;48.188;17.134;2023-02-01T14:48:45;8.20;99.90
12408;DHT22;6268;48.188;17.134;2023-02-01T14:51:16;8.30;99.90
12408;DHT22;6268;48.188;17.134;2023-02-01T14:53:47;8.30;99.90
12408;DHT22;6268;48.188;17.134;2023-02-01T14:56:18;8.30;99.90
12408;DHT22;6268;48.188;17.134;2023-02-01T14:58:55;8.30;99.90
12408;DHT22;6268;48.188;17.134;2023-02-01T15:01:28;8.30;99.90
12408;DHT22;6268;48.188;17.134;2023-02-01T15:04:03;8.30;99.90
12408;DHT22;6268;48.188;17.134;2023-02-01T15:06:37;8.30;99.90
12408;DHT22;6268;48.188;17.134;2023-02-01T15:09:11;8.30;99.90
12408;DHT22;6268;48.188;17.134;2023-02-01T15:12:01;8.30;99.90
12408;DHT22;6268;48.188;17.134;2023-02-01T15:14:34;8.30;99.90
12408;DHT22;6268;48.188;17.134;2023-02-01T15:17:19;8.30;99.90
12408;DHT22;6268;48.188;17.134;2023-02-01T15:19:56;8.30;99.90
12408;DHT22;6268;48.188;17.134;2023-02-01T15:22:27;8.30;99.90
12408;DHT22;6268;48.188;17.134;2023-02-01T15:24:59;8.30;99.90
12408;DHT22;6268;48.188;17.134;2023-02-01T15:27:32;8.30;99.90
12408;DHT22;6268;48.188;17.134;2023-02-01T15:30:17;8.30;99.90
12408;DHT22;6268;48.188;17.134;2023-02-01T15:32:47;8.20;99.90
12408;DHT22;6268;48.188;17.134;2023-02-01T15:35:47;8.30;99.90
12408;DHT22;6268;48.188;17.134;2023-02-01T15:38:34;8.20;99.90
12408;DHT22;6268;48.188;17.134;2023-02-01T15:41:11;8.20;99.90
12408;DHT22;6268;48.188;17.134;2023-02-01T15:43:46;8.20;99.90
12408;DHT22;6268;48.188;17.134;2023-02-01T15:46:35;8.20;99.90
12408;DHT22;6268;48.188;17.134;2023-02-01T15:49:18;8.20;99.90
12408;DHT22;6268;48.188;17.134;2023-02-01T15:51:52;8.10;99.90
12408;DHT22;6268;48.188;17.134;2023-02-01T15:54:26;8.10;99.90
12408;DHT22;6268;48.188;17.134;2023-02-01T15:57:00;8.10;99.90
12408;DHT22;6268;48.188;17.134;2023-02-01T15:59:42;7.90;99.90
12408;DHT22;6268;48.188;17.134;2023-02-01T16:02:28;7.90;99.90
12408;DHT22;6268;48.188;17.134;2023-02-01T16:05:02;7.80;99.90
12408;DHT22;6268;48.188;17.134;2023-02-01T16:07:33;7.70;99.90
12408;DHT22;6268;48.188;17.134;2023-02-01T16:10:21;7.70;99.90
12408;DHT22;6268;48.188;17.134;2023-02-01T16:12:53;7.60;99.90
12408;DHT22;6268;48.188;17.134;2023-02-01T16:15:27;7.50;99.90
12408;DHT22;6268;48.188;17.134;2023-02-01T16:17:58;7.50;99.90
12408;DHT22;6268;48.188;17.134;2023-02-01T16:20:27;7.40;99.90
12408;DHT22;6268;48.188;17.134;2023-02-01T16:22:56;7.40;99.90
12408;DHT22;6268;48.188;17.134;2023-02-01T16:25:25;7.40;99.90
12408;DHT22;6268;48.188;17.134;2023-02-01T16:27:54;7.40;99.90
12408;DHT22;6268;48.188;17.134;2023-02-01T16:30:23;7.40;99.90
12408;DHT22;6268;48.188;17.134;2023-02-01T16:32:53;7.50;99.90
12408;DHT22;6268;48.188;17.134;2023-02-01T16:35:25;7.40;99.90
12408;DHT22;6268;48.188;17.134;2023-02-01T16:37:57;7.40;99.90
12408;DHT22;6268;48.188;17.134;2023-02-01T16:40:26;7.40;99.90
12408;DHT22;6268;48.188;17.134;2023-02-01T16:42:55;7.40;99.90
12408;DHT22;6268;48.188;17.134;2023-02-01T16:45:24;7.30;99.90
12408;DHT22;6268;48.188;17.134;2023-02-01T16:47:54;7.30;99.90
12408;DHT22;6268;48.188;17.134;2023-02-01T16:50:27;7.30;99.90
12408;DHT22;6268;48.188;17.134;2023-02-01T16:52:58;7.30;99.90
12408;DHT22;6268;48.188;17.134;2023-02-01T16:55:27;7.20;99.90
12408;DHT22;6268;48.188;17.134;2023-02-01T16:57:56;7.20;99.90
12408;DHT22;6268;48.188;17.134;2023-02-01T17:00:25;7.40;99.90
12408;DHT22;6268;48.188;17.134;2023-02-01T17:02:54;7.40;99.90
12408;DHT22;6268;48.188;17.134;2023-02-01T17:05:23;7.40;99.90
12408;DHT22;6268;48.188;17.134;2023-02-01T17:07:55;7.40;99.90